createdAt,value
2022-10-19T00:01:59.211Z,83.81
2022-10-19T00:07:00.898Z,83.81
2022-10-19T00:12:02.510Z,83.80
2022-10-19T00:17:04.255Z,83.87
2022-10-19T00:22:07.189Z,83.44
2022-10-19T00:27:24.087Z,83.62
2022-10-19T00:32:25.742Z,83.84
2022-10-19T00:37:27.580Z,83.93
2022-10-19T00:42:29.242Z,83.31
2022-10-19T00:47:31.681Z,83.93
2022-10-19T00:52:33.569Z,83.39
2022-10-19T00:57:35.939Z,83.98
2022-10-19T01:02:37.711Z,84.41
2022-10-19T01:07:39.501Z,84.21
2022-10-19T01:13:02.768Z,84.49
2022-10-19T01:18:36.804Z,83.95
2022-10-19T01:23:53.633Z,83.63
2022-10-19T01:29:22.857Z,84.02
2022-10-19T01:35:12.551Z,83.81
2022-10-19T01:40:55.999Z,84.50
2022-10-19T01:46:27.527Z,84.27
2022-10-19T01:51:34.566Z,83.98
2022-10-19T01:56:37.775Z,84.38
2022-10-19T02:01:44.015Z,84.42
2022-10-19T02:06:46.038Z,84.83
2022-10-19T02:11:57.903Z,85.20
2022-10-19T02:17:03.482Z,85.48
2022-10-19T02:22:05.293Z,85.88
2022-10-19T02:27:08.241Z,85.97
2022-10-19T02:32:10.397Z,86.25
2022-10-19T02:37:12.156Z,86.18
2022-10-19T02:42:22.577Z,85.62
2022-10-19T02:47:30.040Z,85.05
2022-10-19T02:52:31.749Z,84.78
2022-10-19T02:57:33.943Z,84.80
2022-10-19T03:02:35.816Z,84.50
2022-10-19T03:07:37.822Z,84.49
2022-10-19T03:12:39.535Z,84.38
2022-10-19T03:17:41.151Z,85.14
2022-10-19T03:22:42.916Z,85.19
2022-10-19T03:27:44.654Z,85.11
2022-10-19T03:32:46.287Z,84.31
2022-10-19T03:37:47.892Z,84.56
2022-10-19T03:42:49.500Z,84.14
2022-10-19T03:47:51.446Z,84.92
2022-10-19T03:52:55.304Z,85.15
2022-10-19T03:57:57.967Z,85.66
2022-10-19T04:02:59.672Z,85.18
2022-10-19T04:08:01.371Z,85.14
2022-10-19T04:13:02.964Z,84.76
2022-10-19T04:18:04.656Z,84.44
2022-10-19T04:23:06.368Z,84.66
2022-10-19T04:28:08.072Z,84.47
2022-10-19T04:33:09.763Z,85.30
2022-10-19T04:38:11.406Z,85.38
2022-10-19T04:43:13.085Z,85.76
2022-10-19T04:48:15.271Z,86.14
2022-10-19T04:53:17.861Z,86.25
2022-10-19T04:58:19.488Z,85.69
2022-10-19T05:03:21.189Z,85.60
2022-10-19T05:08:22.790Z,85.79
2022-10-19T05:13:24.476Z,86.02
2022-10-19T05:18:27.109Z,85.93
2022-10-19T05:23:29.532Z,86.48
2022-10-19T05:28:31.935Z,86.64
2022-10-19T05:33:34.171Z,86.49
2022-10-19T05:38:35.835Z,86.01
2022-10-19T05:43:37.634Z,86.18
2022-10-19T05:48:40.139Z,85.64
2022-10-19T05:53:42.295Z,85.21
2022-10-19T05:58:44.560Z,85.04
2022-10-19T06:03:48.065Z,85.93
2022-10-19T06:08:50.816Z,85.92
2022-10-19T06:13:55.458Z,86.54
2022-10-19T06:18:58.255Z,86.69
2022-10-19T06:24:03.003Z,87.13
2022-10-19T06:29:05.694Z,86.82
2022-10-19T06:34:07.489Z,87.03
2022-10-19T06:39:09.218Z,87.22
2022-10-19T06:44:10.859Z,87.30
2022-10-19T06:49:14.581Z,86.97
2022-10-19T06:54:16.245Z,87.75
2022-10-19T06:59:20.025Z,89.40
2022-10-19T07:04:21.636Z,90.61
2022-10-19T07:09:23.350Z,90.09
2022-10-19T07:14:25.289Z,90.51
2022-10-19T07:19:27.189Z,92.04
2022-10-19T07:24:28.885Z,93.58
2022-10-19T07:29:30.536Z,93.84
2022-10-19T07:34:32.366Z,94.72
2022-10-19T07:39:34.106Z,95.05
2022-10-19T07:44:36.404Z,95.02
2022-10-19T07:49:38.409Z,94.86
2022-10-19T07:54:40.305Z,94.25
2022-10-19T07:59:42.110Z,94.51
2022-10-19T08:05:02.818Z,92.97
2022-10-19T08:10:06.280Z,92.29
2022-10-19T08:15:08.226Z,89.99
2022-10-19T08:20:10.171Z,89.91
2022-10-19T08:25:11.893Z,88.09
2022-10-19T08:30:13.568Z,87.19
2022-10-19T08:35:15.250Z,85.74
2022-10-19T08:40:23.817Z,84.09
2022-10-19T08:45:50.934Z,83.16
2022-10-19T08:50:53.440Z,82.04
2022-10-19T08:56:04.924Z,81.16
2022-10-19T09:01:17.044Z,78.71
2022-10-19T09:06:37.454Z,78.75
2022-10-19T09:11:44.346Z,76.88
2022-10-19T09:16:46.471Z,76.82
2022-10-19T09:22:11.262Z,74.00
2022-10-19T09:27:31.804Z,72.44
2022-10-19T09:32:39.095Z,70.90
2022-10-19T09:37:45.820Z,71.17
2022-10-19T09:42:51.308Z,70.12
2022-10-19T09:47:53.464Z,70.95
2022-10-19T09:53:05.343Z,70.52
2022-10-19T09:58:18.302Z,70.29
2022-10-19T10:03:28.256Z,70.77
2022-10-19T10:08:33.500Z,70.26
2022-10-19T10:13:41.844Z,70.41
2022-10-19T10:18:58.930Z,69.09
2022-10-19T10:24:03.064Z,68.80
2022-10-19T10:29:20.157Z,69.15
2022-10-19T10:34:50.264Z,68.65
2022-10-19T10:39:57.911Z,68.89
2022-10-19T10:45:03.449Z,68.17
2022-10-19T10:50:07.711Z,68.46
2022-10-19T10:55:09.330Z,65.87
2022-10-19T11:00:16.797Z,66.20
2022-10-19T11:05:31.733Z,66.80
2022-10-19T11:10:52.833Z,66.17
2022-10-19T11:16:02.717Z,65.82
2022-10-19T11:21:12.826Z,65.78
2022-10-19T11:26:33.099Z,64.77
2022-10-19T11:31:47.366Z,65.81
2022-10-19T11:36:59.315Z,65.05
2022-10-19T11:42:19.315Z,65.73
2022-10-19T11:47:42.052Z,63.35
2022-10-19T11:53:01.110Z,64.15
2022-10-19T11:58:24.766Z,63.12
2022-10-19T12:04:04.201Z,63.88
2022-10-19T12:09:22.879Z,62.42
2022-10-19T12:14:29.378Z,61.48
2022-10-19T12:19:46.953Z,62.62
2022-10-19T12:24:50.852Z,62.56
2022-10-19T12:29:53.938Z,62.35
2022-10-19T12:35:04.608Z,62.50
2022-10-19T12:40:26.275Z,62.71
2022-10-19T12:45:27.929Z,62.92
2022-10-19T12:50:48.478Z,63.51
2022-10-19T12:56:14.721Z,62.21
2022-10-19T13:01:19.870Z,62.18
2022-10-19T13:06:24.606Z,62.15
2022-10-19T13:11:26.621Z,61.89
2022-10-19T13:16:28.286Z,62.27
2022-10-19T13:22:02.291Z,62.46
2022-10-19T13:27:03.889Z,62.96
2022-10-19T13:32:43.544Z,64.32
2022-10-19T13:37:45.299Z,64.58
2022-10-19T13:42:46.990Z,64.31
2022-10-19T13:47:56.669Z,65.38
2022-10-19T13:53:27.704Z,64.86
2022-10-19T13:58:58.962Z,65.27
2022-10-19T14:04:21.632Z,65.97
2022-10-19T14:10:04.067Z,65.61
2022-10-19T14:15:23.061Z,66.42
2022-10-19T14:20:38.191Z,66.49
2022-10-19T14:25:39.886Z,65.35
2022-10-19T14:30:41.513Z,65.45
2022-10-19T14:35:48.865Z,65.46
2022-10-19T14:40:50.574Z,65.15
2022-10-19T14:46:07.683Z,65.68
2022-10-19T14:51:28.215Z,66.34
2022-10-19T14:56:58.275Z,66.09
2022-10-19T15:02:04.098Z,66.65
2022-10-19T15:07:17.483Z,66.24
2022-10-19T15:12:23.647Z,67.02
2022-10-19T15:17:31.239Z,67.22
2022-10-19T15:22:32.971Z,67.08
2022-10-19T15:27:35.979Z,67.82
2022-10-19T15:32:38.512Z,67.46
2022-10-19T15:37:44.069Z,67.71
2022-10-19T15:42:48.738Z,67.88
2022-10-19T15:48:10.363Z,68.16
2022-10-19T15:53:11.940Z,68.52
2022-10-19T15:58:14.306Z,68.70
2022-10-19T16:03:16.482Z,68.23
2022-10-19T16:08:18.185Z,68.79
2022-10-19T16:13:19.788Z,69.58
2022-10-19T16:18:21.424Z,69.65
2022-10-19T16:23:23.312Z,70.29
2022-10-19T16:28:25.055Z,71.09
2022-10-19T16:33:26.657Z,71.72
2022-10-19T16:38:29.278Z,71.89
2022-10-19T16:43:31.070Z,72.48
2022-10-19T16:48:33.365Z,72.96
2022-10-19T16:53:37.990Z,73.72
2022-10-19T16:58:41.050Z,74.03
2022-10-19T17:03:46.922Z,74.78
2022-10-19T17:14:12.694Z,74.67
2022-10-19T17:19:14.556Z,74.44
2022-10-19T17:24:21.650Z,74.83
2022-10-19T17:29:24.243Z,74.49
2022-10-19T17:34:27.323Z,74.60
2022-10-19T17:39:29.997Z,74.69
2022-10-19T17:44:32.000Z,75.27
2022-10-19T17:49:33.696Z,75.73
2022-10-19T17:54:43.639Z,75.56
2022-10-19T17:59:56.985Z,76.48
2022-10-19T18:04:59.976Z,76.45
2022-10-19T18:10:01.787Z,77.19
2022-10-19T18:15:03.719Z,77.30
2022-10-19T18:20:05.838Z,77.53
2022-10-19T18:25:07.734Z,77.83
2022-10-19T18:30:10.025Z,77.45
2022-10-19T18:35:11.938Z,76.80
2022-10-19T18:40:13.704Z,76.99
2022-10-19T18:45:15.370Z,77.11
2022-10-19T18:50:17.676Z,77.21
2022-10-19T18:55:19.506Z,77.37
2022-10-19T19:00:21.134Z,76.90
2022-10-19T19:05:23.192Z,76.70
2022-10-19T19:10:25.037Z,76.84
2022-10-19T19:15:26.677Z,76.94
2022-10-19T19:20:28.348Z,76.92
2022-10-19T19:25:30.262Z,77.12
2022-10-19T19:30:31.935Z,77.05
2022-10-19T19:35:34.033Z,77.41
2022-10-19T19:40:40.240Z,77.53
2022-10-19T19:45:45.190Z,77.61
2022-10-19T19:50:47.153Z,77.46
2022-10-19T19:55:49.609Z,77.03
2022-10-19T20:00:51.329Z,77.50
2022-10-19T20:05:52.933Z,77.39
2022-10-19T20:10:54.511Z,77.03
2022-10-19T20:15:56.130Z,77.59
2022-10-19T20:21:02.249Z,78.27
2022-10-19T20:26:04.134Z,78.31
2022-10-19T20:31:08.658Z,78.64
2022-10-19T20:36:20.142Z,78.73
2022-10-19T20:41:24.005Z,79.19
2022-10-19T20:46:28.874Z,79.31
2022-10-19T20:51:33.646Z,79.21
2022-10-19T20:56:40.054Z,79.37
2022-10-19T21:01:43.935Z,79.37
2022-10-19T21:06:48.419Z,80.03
2022-10-19T21:11:51.447Z,79.98
2022-10-19T21:16:53.385Z,80.01
2022-10-19T21:22:01.672Z,80.06
2022-10-19T21:27:07.575Z,80.14
2022-10-19T21:32:09.603Z,80.38
2022-10-19T21:42:12.880Z,80.31
2022-10-19T21:47:14.543Z,81.21
2022-10-19T21:52:16.308Z,80.96
2022-10-19T21:57:17.962Z,80.59
2022-10-19T22:02:19.575Z,81.06
2022-10-19T22:07:21.247Z,81.32
2022-10-19T22:12:22.923Z,81.82
2022-10-19T22:17:24.506Z,81.63
2022-10-19T22:22:26.129Z,81.94
2022-10-19T22:27:27.850Z,81.85
2022-10-19T22:32:29.663Z,81.92
2022-10-19T22:37:31.470Z,82.86
2022-10-19T22:42:33.330Z,82.38
2022-10-19T22:47:35.193Z,82.36
2022-10-19T22:52:37.387Z,82.31
2022-10-19T22:57:39.263Z,82.77
2022-10-19T23:02:40.926Z,83.05
2022-10-19T23:07:42.602Z,83.40
2022-10-19T23:12:44.186Z,83.81
2022-10-19T23:17:46.061Z,84.26
2022-10-19T23:22:47.816Z,84.85
2022-10-19T23:27:49.456Z,84.56
2022-10-19T23:32:51.116Z,85.20
2022-10-19T23:37:52.791Z,84.74
2022-10-19T23:42:54.434Z,85.00
2022-10-19T23:47:56.079Z,85.09
2022-10-19T23:52:57.776Z,84.98
2022-10-19T23:57:59.526Z,85.68
